Time;durP1;ratioP1;P1;durP2;ratioP2;P2;SDS_P1;SDS_P2;PMS_P1;PMS_P2;Temp;Humidity;BMP_temperature;BMP_pressure;BME280_temperature;BME280_humidity;BME280_pressure;Samples;Min_cycle;Max_cycle;Signal;HPM_P1;HPM_P2
2022/04/09 00:01:56;;;;;;;0.77;0.30;;;12.60;81.30;13.10;94075.00;;;;5035696;28;20305;-83
2022/04/09 00:04:24;;;;;;;0.50;0.40;;;12.70;80.70;13.30;94073.00;;;;5035091;28;20649;-83
2022/04/09 00:06:51;;;;;;;2.83;0.30;;;12.90;80.00;13.40;94096.00;;;;5034887;28;20990;-83
2022/04/09 00:09:18;;;;;;;0.50;0.40;;;13.00;80.40;13.60;94090.00;;;;5036718;28;20639;-83
2022/04/09 00:11:45;;;;;;;0.80;0.30;;;13.20;80.00;13.70;94092.00;;;;5041040;28;20197;-83
2022/04/09 00:14:13;;;;;;;0.43;0.40;;;13.30;79.90;13.90;94087.00;;;;5037387;28;20200;-83
2022/04/09 00:16:41;;;;;;;0.53;0.23;;;13.50;79.10;14.00;94107.00;;;;5037673;28;20247;-83
2022/04/09 00:19:08;;;;;;;0.40;0.40;;;13.60;79.20;14.10;94100.00;;;;5037667;28;20265;-83
2022/04/09 00:21:37;;;;;;;0.83;0.40;;;13.80;79.00;14.30;94097.00;;;;5038030;28;20243;-83
2022/04/09 00:24:04;;;;;;;2.00;0.73;;;13.90;77.60;14.40;94111.00;;;;5021891;28;20659;-83
2022/04/09 00:26:32;;;;;;;1.13;0.40;;;14.00;78.00;14.50;94132.00;;;;5028413;28;20681;-83
2022/04/09 00:28:59;;;;;;;1.67;0.40;;;14.10;77.00;14.60;94122.00;;;;5037419;28;20269;-83
2022/04/09 00:31:26;;;;;;;0.50;0.23;;;14.20;76.40;14.70;94152.00;;;;5012390;23;20227;-83
2022/04/09 00:33:53;;;;;;;0.30;0.30;;;14.30;76.30;14.80;94171.00;;;;4964301;29;20263;-84
2022/04/09 00:36:20;;;;;;;0.80;0.47;;;14.50;75.50;14.90;94172.00;;;;4962376;29;20231;-85
2022/04/09 00:38:48;;;;;;;0.20;0.20;;;14.70;73.80;15.00;94161.00;;;;4963021;29;20705;-83
2022/04/09 00:41:16;;;;;;;0.30;0.30;;;14.70;73.70;15.00;94151.00;;;;4981991;28;20207;-83
2022/04/09 00:43:43;;;;;;;0.93;0.23;;;14.80;74.60;15.10;94159.00;;;;4969991;28;20203;-83
2022/04/09 00:46:14;;;;;;;0.70;0.30;;;14.90;74.80;15.10;94156.00;;;;4953498;28;20238;-85
2022/04/09 00:48:43;;;;;;;0.20;0.20;;;14.90;74.40;15.10;94158.00;;;;4952376;28;20184;-84
2022/04/09 00:51:11;;;;;;;0.20;0.20;;;14.90;74.10;15.10;94176.00;;;;4950813;28;20689;-84
2022/04/09 00:53:41;;;;;;;0.30;0.30;;;14.90;73.70;15.10;94164.00;;;;4950228;28;20668;-84
2022/04/09 00:56:15;;;;;;;0.27;0.20;;;14.90;73.70;15.10;94165.00;;;;4950792;28;20689;-85
2022/04/09 00:58:54;;;;;;;0.10;0.10;;;14.90;72.30;15.10;94161.00;;;;4950363;28;20188;-84
2022/04/09 01:01:23;;;;;;;3.50;0.20;;;15.00;72.20;15.10;94232.00;;;;4952241;28;20664;-84
2022/04/09 01:03:52;;;;;;;0.77;0.30;;;15.00;73.20;15.20;94290.00;;;;4958208;28;20673;-83
2022/04/09 01:06:19;;;;;;;0.10;0.10;;;15.10;74.40;15.10;94324.00;;;;4940003;29;20228;-83
2022/04/09 01:08:47;;;;;;;0.23;0.10;;;15.00;75.60;14.90;94353.00;;;;4935184;28;20201;-84
2022/04/09 01:11:16;;;;;;;0.57;0.10;;;14.90;74.10;14.70;94364.00;;;;4933774;28;20208;-84
2022/04/09 01:13:44;;;;;;;0.10;0.10;;;14.80;73.70;14.50;94361.00;;;;4933249;29;20296;-84
2022/04/09 01:16:12;;;;;;;0.00;0.00;;;14.60;72.80;14.10;94369.00;;;;4951873;29;20634;-84
2022/04/09 01:18:41;;;;;;;0.10;0.10;;;14.40;72.40;13.90;94365.00;;;;4952310;28;20227;-83
2022/04/09 01:21:08;;;;;;;0.07;0.07;;;14.20;72.40;13.60;94375.00;;;;4951996;28;20192;-84
2022/04/09 01:23:39;;;;;;;0.10;0.10;;;13.90;72.30;13.40;94384.00;;;;4951927;28;20200;-84
2022/04/09 01:26:07;;;;;;;0.20;0.20;;;13.70;72.30;13.10;94405.00;;;;4939841;28;20228;-83
2022/04/09 01:28:35;;;;;;;0.37;0.20;;;13.50;72.60;13.00;94418.00;;;;4951922;28;20236;-84
2022/04/09 01:31:02;;;;;;;0.10;0.10;;;13.30;72.60;12.80;94422.00;;;;4951601;29;20261;-84
2022/04/09 01:33:29;;;;;;;0.00;0.00;;;13.10;73.20;12.70;94441.00;;;;4951744;29;20220;-84
2022/04/09 01:35:56;;;;;;;0.30;0.17;;;12.90;73.60;12.50;94464.00;;;;4951175;29;20224;-84
2022/04/09 01:38:23;;;;;;;0.00;0.00;;;12.70;73.90;12.40;94470.00;;;;4951582;29;20200;-84
2022/04/09 01:40:53;;;;;;;0.10;0.10;;;12.50;74.10;12.30;94481.00;;;;4951437;29;20669;-83
2022/04/09 01:43:21;;;;;;;0.20;0.20;;;12.40;74.50;12.10;94472.00;;;;4953841;28;20417;-84
2022/04/09 01:45:48;;;;;;;0.13;0.13;;;12.30;74.90;12.00;94497.00;;;;4951345;28;20216;-84
2022/04/09 01:48:15;;;;;;;0.10;0.10;;;12.10;75.10;11.90;94501.00;;;;4951751;28;20669;-84
2022/04/09 01:50:42;;;;;;;0.63;0.10;;;12.00;75.20;11.80;94520.00;;;;4951556;28;20200;-84
2022/04/09 01:53:09;;;;;;;0.00;0.00;;;11.90;75.20;11.70;94540.00;;;;4951509;28;20208;-84
2022/04/09 01:55:37;;;;;;;0.10;0.10;;;11.80;75.20;11.50;94562.00;;;;4955418;28;20251;-85
2022/04/09 01:58:05;;;;;;;0.63;0.20;;;11.70;74.90;11.30;94563.00;;;;4940886;29;20200;-84
2022/04/09 02:00:33;;;;;;;0.00;0.00;;;11.50;75.10;11.10;94600.00;;;;4954380;29;20832;-84
2022/04/09 02:03:00;;;;;;;0.10;0.10;;;11.40;75.10;10.90;94617.00;;;;4955396;28;20196;-85
2022/04/09 02:05:27;;;;;;;0.10;0.03;;;11.30;75.10;10.70;94634.00;;;;4954517;29;20697;-84
2022/04/09 02:07:54;;;;;;;0.00;0.00;;;11.00;74.20;10.50;94612.00;;;;4954605;29;20234;-84
2022/04/09 02:10:21;;;;;;;0.00;0.00;;;10.80;74.50;10.30;94630.00;;;;4954504;29;20208;-85
2022/04/09 02:12:48;;;;;;;0.00;0.00;;;10.60;74.40;10.10;94662.00;;;;4954818;28;20299;-84
2022/04/09 02:15:18;;;;;;;0.00;0.00;;;10.40;74.40;9.90;94674.00;;;;4954086;29;20716;-84
2022/04/09 02:17:45;;;;;;;0.00;0.00;;;10.30;74.70;9.70;94689.00;;;;4954066;28;20200;-83
2022/04/09 02:20:15;;;;;;;0.00;0.00;;;10.10;74.70;9.60;94694.00;;;;4954506;28;20665;-84
2022/04/09 02:22:44;;;;;;;0.00;0.00;;;9.90;75.00;9.40;94693.00;;;;4954363;28;20207;-84
2022/04/09 02:25:15;;;;;;;0.10;0.10;;;9.80;74.70;9.30;94701.00;;;;4953843;29;20203;-84
2022/04/09 02:27:42;;;;;;;0.00;0.00;;;9.60;75.10;9.10;94717.00;;;;4955001;28;20228;-84
2022/04/09 02:30:11;;;;;;;0.10;0.00;;;9.40;75.10;9.00;94741.00;;;;4955107;28;20215;-84
2022/04/09 02:32:49;;;;;;;0.10;0.10;;;9.30;75.60;8.90;94769.00;;;;4942161;29;20209;-84
2022/04/09 02:35:18;;;;;;;0.00;0.00;;;9.20;75.70;8.80;94785.00;;;;4943404;29;20181;-83
2022/04/09 02:37:45;;;;;;;0.00;0.00;;;9.10;76.70;8.70;94805.00;;;;4962971;28;20204;-84
2022/04/09 02:40:13;;;;;;;0.00;0.00;;;9.00;76.10;8.60;94802.00;;;;4956512;28;20214;-84
2022/04/09 02:42:41;;;;;;;0.00;0.00;;;8.90;76.30;8.60;94812.00;;;;4954951;28;20204;-84
2022/04/09 02:45:11;;;;;;;0.00;0.00;;;8.80;76.50;8.50;94828.00;;;;4954492;28;20211;-84
2022/04/09 02:47:38;;;;;;;0.00;0.00;;;8.70;76.70;8.50;94823.00;;;;4954331;28;20274;-84
2022/04/09 02:50:08;;;;;;;0.00;0.00;;;8.70;77.40;8.40;94835.00;;;;4954439;29;20294;-84
2022/04/09 02:52:37;;;;;;;0.03;0.03;;;8.60;76.90;8.40;94845.00;;;;4965461;28;20196;-84
2022/04/09 02:55:05;;;;;;;0.00;0.00;;;8.50;77.20;8.30;94854.00;;;;5035005;28;20591;-83
2022/04/09 02:57:32;;;;;;;0.03;0.03;;;8.50;77.30;8.20;94872.00;;;;4964467;28;20211;-84
2022/04/09 02:59:59;;;;;;;0.10;0.10;;;8.40;77.50;8.20;94885.00;;;;4954547;28;20200;-84
2022/04/09 03:02:27;;;;;;;0.20;0.20;;;8.40;77.60;8.20;94893.00;;;;4954648;29;20295;-84
2022/04/09 03:04:55;;;;;;;0.20;0.20;;;8.40;77.90;8.20;94905.00;;;;4953596;28;20250;-83
2022/04/09 03:07:24;;;;;;;0.40;0.40;;;8.30;77.90;8.20;94924.00;;;;4952820;28;20224;-84
2022/04/09 03:09:51;;;;;;;0.30;0.30;;;8.30;78.10;8.20;94948.00;;;;4935180;28;20723;-84
2022/04/09 03:12:18;;;;;;;0.40;0.40;;;8.30;78.10;8.20;94971.00;;;;4934817;28;20204;-84
2022/04/09 03:14:46;;;;;;;0.70;0.70;;;8.40;78.20;8.10;94976.00;;;;4934670;28;20204;-83
2022/04/09 03:17:14;;;;;;;0.80;0.70;;;8.30;78.40;8.10;94986.00;;;;4951673;28;20235;-82
2022/04/09 03:19:41;;;;;;;0.60;0.60;;;8.30;78.50;8.10;94994.00;;;;4958139;28;20227;-83
2022/04/09 03:22:08;;;;;;;0.50;0.50;;;8.30;78.30;8.10;95014.00;;;;4955590;29;20565;-83
2022/04/09 03:24:36;;;;;;;0.60;0.60;;;8.20;78.30;8.00;95042.00;;;;4954520;29;20200;-83
2022/04/09 03:27:04;;;;;;;0.70;0.70;;;8.20;78.30;8.00;95042.00;;;;4953403;28;20224;-83
2022/04/09 03:29:32;;;;;;;0.57;0.57;;;8.20;78.20;8.00;95043.00;;;;4953662;29;20203;-83
2022/04/09 03:32:00;;;;;;;0.70;0.60;;;8.20;78.30;8.00;95045.00;;;;4953747;28;20678;-83
2022/04/09 03:34:28;;;;;;;1.03;0.80;;;8.20;78.50;8.10;95057.00;;;;4953578;28;20206;-82
2022/04/09 03:36:55;;;;;;;0.70;0.70;;;8.20;78.50;8.00;95054.00;;;;4953411;28;20595;-83
2022/04/09 03:39:22;;;;;;;0.80;0.80;;;8.20;78.10;8.00;95063.00;;;;4953571;29;20211;-83
2022/04/09 03:41:50;;;;;;;0.70;0.70;;;8.20;78.50;8.00;95059.00;;;;4953434;29;20684;-83
2022/04/09 03:44:17;;;;;;;0.80;0.80;;;8.20;78.50;8.00;95078.00;;;;4953065;29;20208;-83
2022/04/09 03:46:44;;;;;;;0.80;0.80;;;8.20;78.40;8.00;95085.00;;;;4952927;29;20223;-83
2022/04/09 03:49:11;;;;;;;0.63;0.63;;;8.20;78.20;8.00;95115.00;;;;4953336;29;20208;-82
2022/04/09 03:51:38;;;;;;;0.80;0.80;;;8.20;78.20;8.00;95123.00;;;;4953324;29;20207;-83
2022/04/09 03:54:05;;;;;;;0.87;0.87;;;8.10;78.30;8.00;95128.00;;;;4953770;28;20200;-81
2022/04/09 03:56:32;;;;;;;0.90;0.90;;;8.10;78.40;8.00;95135.00;;;;4952946;29;20212;-83
2022/04/09 03:59:01;;;;;;;1.00;1.00;;;8.10;78.40;8.00;95146.00;;;;4953039;28;20200;-83
2022/04/09 04:01:28;;;;;;;0.90;0.90;;;8.10;78.50;8.00;95156.00;;;;4960068;28;20215;-83
2022/04/09 04:03:55;;;;;;;1.17;1.10;;;8.10;78.50;8.10;95155.00;;;;4953352;28;20193;-82
2022/04/09 04:06:22;;;;;;;1.07;1.07;;;8.10;78.50;8.00;95149.00;;;;4942396;29;20217;-82
2022/04/09 04:08:49;;;;;;;0.90;0.90;;;8.10;78.50;8.00;95167.00;;;;4934004;28;20235;-83
2022/04/09 04:11:16;;;;;;;1.00;1.00;;;8.10;78.30;8.00;95176.00;;;;4943108;28;20203;-82
2022/04/09 04:13:43;;;;;;;1.10;1.10;;;8.10;78.10;8.00;95194.00;;;;4952512;29;20208;-83
2022/04/09 04:16:11;;;;;;;0.87;0.87;;;8.10;78.10;8.00;95198.00;;;;4952585;29;20220;-83
2022/04/09 04:18:38;;;;;;;1.00;1.00;;;8.10;77.90;8.00;95212.00;;;;4951540;29;20230;-83
2022/04/09 04:21:05;;;;;;;1.20;1.10;;;8.10;78.10;7.90;95207.00;;;;4952927;29;20207;-83
2022/04/09 04:23:32;;;;;;;1.00;1.00;;;8.10;78.10;7.90;95203.00;;;;4952618;28;20200;-83
2022/04/09 04:25:59;;;;;;;0.97;0.97;;;8.10;77.90;7.90;95211.00;;;;4952421;29;20224;-83
2022/04/09 04:28:27;;;;;;;1.20;1.20;;;8.10;78.10;7.90;95236.00;;;;4951813;29;20231;-83
2022/04/09 04:30:54;;;;;;;1.10;1.00;;;8.10;78.10;7.90;95245.00;;;;4951964;28;20587;-83
2022/04/09 04:33:22;;;;;;;0.90;0.90;;;8.00;77.80;7.90;95254.00;;;;4952354;29;20200;-83
2022/04/09 04:35:50;;;;;;;1.00;1.00;;;8.00;77.90;7.90;95248.00;;;;4951892;29;20220;-84
2022/04/09 04:38:17;;;;;;;0.90;0.90;;;8.00;78.40;7.90;95233.00;;;;4952339;29;20211;-82
2022/04/09 04:40:44;;;;;;;1.10;1.10;;;8.00;78.10;7.90;95251.00;;;;4937524;28;20204;-83
2022/04/09 04:43:11;;;;;;;1.10;1.10;;;8.00;77.90;7.90;95268.00;;;;4932989;28;20580;-83
2022/04/09 04:45:39;;;;;;;1.10;1.10;;;8.00;77.30;7.90;95278.00;;;;4933136;28;20319;-82
2022/04/09 04:48:06;;;;;;;1.20;1.20;;;8.00;77.80;7.90;95309.00;;;;4932800;28;20235;-83
2022/04/09 04:50:37;;;;;;;1.43;1.30;;;8.00;77.80;7.90;95318.00;;;;4932731;28;20893;-83
2022/04/09 04:53:04;;;;;;;1.20;1.20;;;8.00;77.90;7.90;95330.00;;;;4933050;28;20186;-82
2022/04/09 04:55:31;;;;;;;1.30;1.30;;;8.00;78.00;7.90;95333.00;;;;4932965;28;20313;-82
2022/04/09 04:57:58;;;;;;;1.30;1.20;;;8.00;77.80;8.00;95355.00;;;;4933500;29;20223;-83
2022/04/09 05:00:26;;;;;;;1.30;1.20;;;8.00;77.50;8.00;95353.00;;;;4932757;28;20201;-82
2022/04/09 05:02:53;;;;;;;1.83;1.50;;;8.00;77.60;7.90;95346.00;;;;4932621;29;20196;-82
2022/04/09 05:05:21;;;;;;;1.30;1.20;;;8.00;78.00;8.00;95355.00;;;;4932837;29;20201;-82
2022/04/09 05:07:52;;;;;;;1.30;1.30;;;8.10;78.00;8.00;95384.00;;;;4932679;29;20704;-82
2022/04/09 05:10:21;;;;;;;1.77;1.67;;;8.10;78.10;8.10;95383.00;;;;4940447;29;20199;-82
2022/04/09 05:12:49;;;;;;;2.33;1.80;;;8.10;78.10;8.10;95395.00;;;;4951929;29;20199;-82
2022/04/09 05:15:17;;;;;;;2.00;1.90;;;8.10;78.10;8.10;95389.00;;;;4951559;29;20658;-83
2022/04/09 05:17:45;;;;;;;2.00;1.90;;;8.20;78.30;8.10;95403.00;;;;4951955;28;20212;-83
2022/04/09 05:20:16;;;;;;;2.20;2.10;;;8.20;78.20;8.10;95409.00;;;;4954034;29;20286;-83
2022/04/09 05:22:46;;;;;;;3.40;2.60;;;8.20;78.10;8.10;95424.00;;;;4953743;29;20185;-83
2022/04/09 05:25:19;;;;;;;2.67;2.40;;;8.20;78.30;8.20;95453.00;;;;4970301;28;20226;-83
2022/04/09 05:27:47;;;;;;;2.40;2.20;;;8.20;78.20;8.20;95463.00;;;;4972283;28;20258;-82
2022/04/09 05:30:14;;;;;;;2.87;2.67;;;8.30;78.30;8.20;95472.00;;;;4956571;28;20238;-83
2022/04/09 05:32:42;;;;;;;3.43;3.20;;;8.30;78.20;8.20;95472.00;;;;4955470;29;20295;-83
2022/04/09 05:35:12;;;;;;;3.23;3.03;;;8.30;78.10;8.20;95475.00;;;;4953064;29;20204;-83
2022/04/09 05:37:44;;;;;;;3.17;2.97;;;8.30;78.00;8.20;95484.00;;;;4953566;28;20203;-83
2022/04/09 05:40:14;;;;;;;4.03;3.73;;;8.30;78.10;8.20;95489.00;;;;4942616;29;20211;-83
2022/04/09 05:42:41;;;;;;;5.63;3.90;;;8.30;78.20;8.20;95502.00;;;;4949617;29;20196;-83
2022/04/09 05:45:10;;;;;;;4.07;3.77;;;8.30;78.00;8.20;95508.00;;;;4953363;28;20196;-82
2022/04/09 05:47:40;;;;;;;4.10;3.80;;;8.30;77.50;8.20;95520.00;;;;4952292;28;20224;-85
2022/04/09 05:50:09;;;;;;;4.37;4.07;;;8.30;77.60;8.20;95523.00;;;;5048380;28;20196;-83
2022/04/09 05:52:36;;;;;;;4.37;4.07;;;8.30;77.90;8.30;95532.00;;;;5040225;28;20205;-82
2022/04/09 05:55:04;;;;;;;4.43;4.13;;;8.30;78.00;8.40;95542.00;;;;4952366;29;20203;-83
2022/04/09 05:57:34;;;;;;;4.30;4.00;;;8.40;78.30;8.50;95569.00;;;;4967972;28;20204;-82
2022/04/09 06:00:04;;;;;;;3.97;3.77;;;8.40;78.20;8.50;95562.00;;;;4952242;28;20561;-83
2022/04/09 06:02:31;;;;;;;4.43;4.13;;;8.40;78.20;8.60;95566.00;;;;4951735;28;20199;-83
2022/04/09 06:04:58;;;;;;;4.80;4.50;;;8.50;78.40;8.60;95568.00;;;;4951311;28;20203;-82
2022/04/09 06:07:26;;;;;;;4.70;4.30;;;8.50;78.20;8.60;95573.00;;;;4951014;28;20212;-83
2022/04/09 06:09:54;;;;;;;4.87;4.57;;;8.50;78.00;8.60;95582.00;;;;4943584;29;20250;-82
2022/04/09 06:12:21;;;;;;;5.23;3.77;;;8.60;78.10;8.70;95583.00;;;;4932344;29;20211;-82
2022/04/09 06:14:49;;;;;;;5.57;4.87;;;8.60;78.20;8.70;95604.00;;;;4941643;28;20196;-82
2022/04/09 06:17:16;;;;;;;4.30;4.00;;;8.60;78.30;8.80;95611.00;;;;4949140;28;20216;-82
2022/04/09 06:19:45;;;;;;;4.67;4.23;;;8.70;78.40;8.80;95608.00;;;;4937921;28;20601;-82
2022/04/09 06:22:12;;;;;;;4.17;3.83;;;8.70;78.10;8.80;95618.00;;;;4934567;28;20628;-82
2022/04/09 06:24:39;;;;;;;4.40;4.10;;;8.70;78.20;8.90;95613.00;;;;4951698;28;20204;-82
2022/04/09 06:27:06;;;;;;;4.80;4.40;;;8.70;78.10;8.90;95618.00;;;;4968745;28;20593;-82
2022/04/09 06:29:33;;;;;;;4.57;4.27;;;8.70;77.60;8.90;95626.00;;;;4950897;29;20216;-82
2022/04/09 06:32:01;;;;;;;4.57;4.17;;;8.80;77.80;8.90;95629.00;;;;4955588;28;20204;-83
2022/04/09 06:34:28;;;;;;;4.60;4.20;;;8.80;77.60;8.90;95635.00;;;;4955619;28;20212;-83
2022/04/09 06:36:55;;;;;;;4.30;3.90;;;8.80;77.60;8.90;95627.00;;;;4950905;28;20303;-83
2022/04/09 06:39:23;;;;;;;4.17;3.87;;;8.80;77.20;8.90;95630.00;;;;4950909;29;20208;-83
2022/04/09 06:41:50;;;;;;;4.40;4.10;;;8.80;78.00;8.90;95638.00;;;;4954529;28;20211;-84
2022/04/09 06:44:18;;;;;;;4.13;3.80;;;8.80;77.40;8.90;95646.00;;;;4959729;23;20722;-85
2022/04/09 06:46:46;;;;;;;4.40;4.00;;;8.80;77.30;9.00;95658.00;;;;4941898;28;20231;-85
2022/04/09 06:49:15;;;;;;;4.13;3.80;;;8.90;77.40;9.00;95654.00;;;;4942463;28;20763;-84
2022/04/09 06:51:44;;;;;;;4.73;3.43;;;8.90;77.30;9.00;95656.00;;;;4935741;28;20196;-84
2022/04/09 06:54:12;;;;;;;4.47;4.07;;;8.90;75.80;9.00;95668.00;;;;4926384;28;20209;-86
2022/04/09 06:56:40;;;;;;;3.80;3.50;;;8.90;76.50;9.00;95669.00;;;;4932715;29;20224;-86
2022/04/09 06:59:07;;;;;;;4.30;3.70;;;8.90;76.40;9.00;95677.00;;;;4925211;28;20422;-86
2022/04/09 07:01:35;;;;;;;3.93;3.60;;;8.90;76.00;9.00;95678.00;;;;4915541;28;20666;-87
2022/04/09 07:04:03;;;;;;;3.80;3.50;;;9.00;76.20;9.00;95677.00;;;;4926589;28;20205;-85
2022/04/09 07:06:31;;;;;;;3.90;3.60;;;8.90;75.60;9.00;95689.00;;;;4931383;28;20213;-84
2022/04/09 07:08:59;;;;;;;4.20;3.90;;;9.00;75.90;9.00;95701.00;;;;4933220;29;20213;-84
2022/04/09 07:11:26;;;;;;;4.07;3.77;;;9.00;76.30;9.00;95694.00;;;;4932264;28;20263;-85
2022/04/09 07:13:54;;;;;;;3.57;3.37;;;9.00;75.50;9.10;95693.00;;;;4933526;28;20204;-84
2022/04/09 07:16:21;;;;;;;4.80;3.80;;;9.00;75.10;9.10;95694.00;;;;4932348;28;20271;-85
2022/04/09 07:18:48;;;;;;;3.30;3.10;;;9.00;75.10;9.20;95705.00;;;;4933868;29;20201;-85
2022/04/09 07:21:16;;;;;;;3.67;3.37;;;9.10;74.90;9.20;95703.00;;;;4933280;28;20576;-85
2022/04/09 07:23:44;;;;;;;3.40;3.10;;;9.10;76.10;9.30;95707.00;;;;4934519;29;20200;-85
2022/04/09 07:26:12;;;;;;;3.07;2.77;;;9.20;75.40;9.40;95714.00;;;;4932464;28;20217;-85
2022/04/09 07:28:39;;;;;;;3.10;2.83;;;9.20;75.20;9.50;95708.00;;;;4933613;28;20229;-85
2022/04/09 07:31:06;;;;;;;2.90;2.70;;;9.30;75.10;9.60;95721.00;;;;4933515;28;21002;-85
2022/04/09 07:33:33;;;;;;;3.30;3.00;;;9.40;74.20;9.70;95725.00;;;;4933100;28;20231;-86
2022/04/09 07:36:01;;;;;;;3.60;3.33;;;9.40;74.90;9.80;95729.00;;;;4933290;29;20225;-85
2022/04/09 07:38:28;;;;;;;3.13;2.83;;;9.50;75.20;9.90;95731.00;;;;4936220;28;20578;-86
2022/04/09 07:40:57;;;;;;;3.53;3.20;;;9.60;74.90;10.00;95730.00;;;;4933770;28;20197;-85
2022/04/09 07:43:24;;;;;;;2.93;2.73;;;9.70;74.40;10.00;95735.00;;;;4935725;28;20204;-85
2022/04/09 07:45:51;;;;;;;4.27;3.50;;;9.80;74.70;10.10;95738.00;;;;4951751;28;20217;-85
2022/04/09 07:48:20;;;;;;;3.07;2.87;;;9.80;75.20;10.30;95742.00;;;;4967543;28;20678;-86
2022/04/09 07:50:47;;;;;;;3.30;3.00;;;9.90;74.40;10.40;95751.00;;;;5003122;28;20658;-86
2022/04/09 07:53:14;;;;;;;3.10;2.90;;;10.00;74.30;10.50;95750.00;;;;4937200;29;20200;-86
2022/04/09 07:55:41;;;;;;;2.63;2.43;;;10.10;74.20;10.70;95750.00;;;;4931745;28;20705;-85
2022/04/09 07:58:12;;;;;;;2.53;2.33;;;10.30;74.00;10.80;95760.00;;;;4936373;29;20239;-85
2022/04/09 08:00:39;;;;;;;3.00;2.57;;;10.40;74.20;10.90;95761.00;;;;4937599;29;20294;-85
2022/04/09 08:03:08;;;;;;;2.50;2.30;;;10.50;74.10;11.00;95757.00;;;;4934142;29;20282;-85
2022/04/09 08:05:35;;;;;;;3.23;2.20;;;10.60;73.70;11.10;95769.00;;;;4934713;28;20216;-85
2022/04/09 08:08:03;;;;;;;3.30;2.40;;;10.70;72.20;11.20;95771.00;;;;4933027;28;20196;-84
2022/04/09 08:10:31;;;;;;;2.03;1.93;;;10.80;71.90;11.30;95772.00;;;;4931694;28;20205;-85
2022/04/09 08:12:58;;;;;;;3.07;2.17;;;10.90;72.30;11.40;95765.00;;;;4976055;28;20204;-85
2022/04/09 08:15:27;;;;;;;2.60;2.40;;;11.00;71.60;11.50;95776.00;;;;4930029;29;20243;-85
2022/04/09 08:17:56;;;;;;;2.83;2.63;;;11.10;72.30;11.70;95787.00;;;;4926966;29;20244;-85
2022/04/09 08:20:23;;;;;;;2.90;2.50;;;11.20;72.50;11.70;95786.00;;;;4931028;28;20582;-84
2022/04/09 08:22:51;;;;;;;2.93;2.67;;;11.30;70.30;11.80;95803.00;;;;4933639;28;20587;-85
2022/04/09 08:25:19;;;;;;;2.97;2.63;;;11.30;71.40;11.70;95808.00;;;;4937250;29;20217;-85
2022/04/09 08:27:49;;;;;;;4.37;2.77;;;11.40;70.70;11.70;95805.00;;;;4931385;28;20258;-85
2022/04/09 08:30:17;;;;;;;2.93;2.53;;;11.40;70.10;11.60;95803.00;;;;4930499;29;20273;-85
2022/04/09 08:32:49;;;;;;;2.40;2.13;;;11.40;69.20;11.50;95807.00;;;;4919169;28;20221;-85
2022/04/09 08:35:16;;;;;;;2.63;2.43;;;11.30;68.40;11.40;95818.00;;;;4936882;28;20220;-86
2022/04/09 08:37:44;;;;;;;2.73;2.53;;;11.30;69.00;11.50;95815.00;;;;4931246;28;20201;-85
2022/04/09 08:40:15;;;;;;;4.13;2.63;;;11.30;69.30;11.80;95811.00;;;;4933309;28;20236;-86
2022/04/09 08:42:44;;;;;;;2.63;2.23;;;11.30;70.00;12.10;95809.00;;;;4961536;28;20240;-85
2022/04/09 08:45:11;;;;;;;3.07;2.40;;;11.50;71.50;12.50;95813.00;;;;4930206;28;20448;-84
2022/04/09 08:47:42;;;;;;;2.40;2.20;;;11.70;71.50;12.80;95806.00;;;;4931760;28;20208;-85
2022/04/09 08:50:12;;;;;;;1.90;1.80;;;11.90;71.60;12.90;95802.00;;;;4920982;29;20310;-86
2022/04/09 08:52:42;;;;;;;3.10;1.87;;;12.10;70.50;13.00;95811.00;;;;4927264;28;20212;-85
2022/04/09 08:55:12;;;;;;;2.53;1.87;;;12.30;69.10;13.00;95818.00;;;;4925352;29;20743;-86
2022/04/09 08:57:40;;;;;;;1.80;1.50;;;12.40;69.20;13.10;95824.00;;;;4930354;28;20737;-85
2022/04/09 09:00:13;;;;;;;2.03;1.60;;;12.50;68.80;13.10;95833.00;;;;4931044;28;20262;-86
2022/04/09 09:02:50;;;;;;;3.23;1.90;;;12.60;67.90;13.00;95843.00;;;;4936565;29;20221;-85
2022/04/09 09:05:37;;;;;;;2.20;2.00;;;12.70;63.70;12.90;95841.00;;;;4930029;28;20581;-86
2022/04/09 09:08:06;;;;;;;2.17;1.97;;;12.70;64.10;12.80;95837.00;;;;4930669;28;20243;-85
2022/04/09 09:10:36;;;;;;;2.90;2.17;;;12.60;64.80;12.70;95837.00;;;;4924477;28;20670;-85
2022/04/09 09:13:07;;;;;;;2.20;2.00;;;12.60;65.20;12.60;95838.00;;;;4931578;28;20215;-86
2022/04/09 09:15:47;;;;;;;2.30;2.10;;;12.50;65.90;12.60;95846.00;;;;4947340;29;20227;-85
2022/04/09 09:18:21;;;;;;;2.50;2.30;;;12.50;64.60;12.60;95852.00;;;;4935239;28;20204;-85
2022/04/09 09:20:55;;;;;;;3.33;2.50;;;12.40;65.30;12.50;95854.00;;;;4929396;29;20200;-86
2022/04/09 09:23:24;;;;;;;4.17;2.50;;;12.40;65.50;12.50;95853.00;;;;4949841;29;20203;-85
2022/04/09 09:25:53;;;;;;;3.37;2.30;;;12.30;65.80;12.60;95853.00;;;;4928457;29;20220;-85
2022/04/09 09:28:25;;;;;;;2.57;2.37;;;12.30;65.60;12.60;95851.00;;;;4929576;29;20204;-85
2022/04/09 09:30:52;;;;;;;2.77;2.57;;;12.40;66.40;12.60;95867.00;;;;4930338;28;20212;-86
2022/04/09 09:33:20;;;;;;;2.60;2.40;;;12.40;65.20;12.60;95868.00;;;;4931080;29;20228;-86
2022/04/09 09:35:54;;;;;;;2.70;2.50;;;12.30;64.90;12.50;95871.00;;;;4928094;28;20605;-86
2022/04/09 09:38:24;;;;;;;3.53;3.00;;;12.30;65.50;12.40;95873.00;;;;4928766;29;20193;-85
2022/04/09 09:40:52;;;;;;;2.70;2.50;;;12.20;65.70;12.50;95874.00;;;;4928441;28;20665;-85
2022/04/09 09:43:21;;;;;;;3.43;2.70;;;12.20;66.50;12.50;95874.00;;;;4930008;28;20200;-85
2022/04/09 09:45:51;;;;;;;2.27;2.07;;;12.20;67.80;12.60;95878.00;;;;4929378;29;20256;-86
2022/04/09 09:48:24;;;;;;;2.67;2.47;;;12.30;68.60;12.80;95881.00;;;;4931311;28;20208;-86
2022/04/09 09:50:54;;;;;;;2.50;2.30;;;12.50;69.10;12.90;95877.00;;;;4930345;28;20236;-86
2022/04/09 09:53:31;;;;;;;2.33;2.10;;;12.60;69.30;13.10;95876.00;;;;4930158;28;20204;-86
2022/04/09 09:55:59;;;;;;;2.20;1.80;;;12.90;69.70;13.40;95877.00;;;;4927895;28;20563;-86
2022/04/09 09:58:28;;;;;;;2.70;1.80;;;13.10;69.30;13.40;95877.00;;;;4929722;29;20231;-86
2022/04/09 10:00:56;;;;;;;1.63;1.53;;;13.40;68.20;13.50;95886.00;;;;4915475;28;20596;-86
2022/04/09 10:03:25;;;;;;;2.10;1.90;;;13.40;66.00;13.50;95880.00;;;;4929779;28;20201;-87
2022/04/09 10:05:54;;;;;;;2.33;1.70;;;13.60;67.60;13.60;95898.00;;;;4929274;28;20232;-87
2022/04/09 10:08:23;;;;;;;2.53;1.50;;;13.70;66.70;13.60;95905.00;;;;4929752;28;20212;-86
2022/04/09 10:10:53;;;;;;;2.37;1.43;;;13.80;63.20;13.60;95903.00;;;;4928840;28;20284;-86
2022/04/09 10:13:24;;;;;;;2.07;1.30;;;13.90;62.90;13.50;95904.00;;;;4929702;29;20255;-85
2022/04/09 10:15:53;;;;;;;1.50;1.40;;;13.80;61.90;13.40;95911.00;;;;4929598;28;20635;-86
2022/04/09 10:18:24;;;;;;;1.50;1.30;;;13.70;63.30;13.40;95905.00;;;;4932557;28;20232;-86
2022/04/09 10:21:00;;;;;;;1.93;1.40;;;13.80;64.80;13.50;95905.00;;;;4932037;29;20647;-86
2022/04/09 10:23:32;;;;;;;1.50;1.17;;;14.00;64.80;13.60;95909.00;;;;4928658;28;20571;-88
2022/04/09 10:26:01;;;;;;;2.07;1.23;;;14.20;65.80;13.70;95910.00;;;;4926020;28;20233;-84
2022/04/09 10:28:33;;;;;;;1.37;1.27;;;14.40;65.10;13.80;95911.00;;;;4928042;28;20220;-85
2022/04/09 10:31:01;;;;;;;1.90;1.50;;;14.60;64.40;13.90;95905.00;;;;4931981;29;20590;-85
2022/04/09 10:33:34;;;;;;;1.80;1.30;;;14.70;64.10;14.00;95912.00;;;;4932952;28;20232;-85
2022/04/09 10:36:03;;;;;;;1.27;1.13;;;14.80;61.70;14.10;95911.00;;;;4931939;29;20255;-85
2022/04/09 10:38:31;;;;;;;1.10;1.00;;;14.90;59.60;14.10;95916.00;;;;4931955;28;20678;-83
2022/04/09 10:41:27;;;;;;;1.80;1.17;;;14.80;60.30;14.10;95919.00;;;;4932307;28;20201;-86
2022/04/09 10:43:59;;;;;;;1.40;1.30;;;14.80;57.80;14.00;95916.00;;;;4932202;28;20209;-82
2022/04/09 10:46:37;;;;;;;2.80;1.40;;;14.70;59.40;14.00;95920.00;;;;4932091;28;20673;-83
2022/04/09 10:49:19;;;;;;;1.53;1.13;;;14.50;57.60;13.90;95922.00;;;;4933217;28;20311;-84
2022/04/09 10:52:14;;;;;;;1.70;1.53;;;14.30;58.20;14.00;95929.00;;;;4933583;29;20209;-84
2022/04/09 10:55:22;;;;;;;1.80;1.20;;;14.30;59.00;14.00;95936.00;;;;4932986;28;20221;-84
2022/04/09 10:57:53;;;;;;;1.37;1.20;;;14.20;58.60;14.10;95925.00;;;;4924741;28;20640;-84
2022/04/09 11:00:37;;;;;;;1.23;1.13;;;14.10;59.80;14.10;95929.00;;;;4932246;28;20197;-82
2022/04/09 11:03:16;;;;;;;2.10;1.53;;;14.10;59.70;14.10;95915.00;;;;4933276;29;20212;-83
2022/04/09 11:05:44;;;;;;;2.67;1.47;;;14.00;57.50;14.10;95921.00;;;;4917945;28;20227;-83
2022/04/09 11:08:17;;;;;;;1.70;1.00;;;13.90;58.20;14.10;95926.00;;;;4972715;28;20564;-83
2022/04/09 11:10:45;;;;;;;0.90;0.90;;;13.90;58.50;14.10;95921.00;;;;4958660;28;20752;-84